Time;durP1;ratioP1;P1;durP2;ratioP2;P2;SDS_P1;SDS_P2;PMS_P1;PMS_P2;Temp;Humidity;BMP_temperature;BMP_pressure;BME280_temperature;BME280_humidity;BME280_pressure;Samples;Min_cycle;Max_cycle;Signal;HPM_P1;HPM_P2
2022/05/22 00:02:26;;;;;;;3.43;2.93;;;13.00;1.00;;;;;;6186425;28;20235;-52
2022/05/22 00:05:29;;;;;;;6.80;3.37;;;12.90;1.00;;;;;;6197621;28;20305;-51
2022/05/22 00:08:33;;;;;;;3.50;2.70;;;12.90;1.00;;;;;;6196052;28;20371;-50
2022/05/22 00:11:35;;;;;;;3.47;2.97;;;12.90;1.00;;;;;;6165221;28;20514;-51
2022/05/22 00:14:39;;;;;;;3.00;2.83;;;12.90;1.00;;;;;;6159362;28;20246;-53
2022/05/22 00:17:42;;;;;;;2.90;2.50;;;12.90;1.00;;;;;;6163546;28;20244;-51
2022/05/22 00:20:44;;;;;;;4.23;3.30;;;12.90;1.00;;;;;;6181223;28;20243;-53
2022/05/22 00:23:48;;;;;;;3.97;3.00;;;12.90;1.00;;;;;;6183643;28;20633;-51
2022/05/22 00:26:51;;;;;;;5.13;2.73;;;12.80;1.00;;;;;;6179141;28;20331;-53
2022/05/22 00:29:54;;;;;;;2.90;2.70;;;12.80;1.00;;;;;;6158805;28;20240;-52
2022/05/22 00:32:56;;;;;;;3.50;3.00;;;12.80;1.00;;;;;;6169655;28;20294;-52
2022/05/22 00:35:59;;;;;;;5.03;3.30;;;12.80;1.00;;;;;;6171674;28;20892;-53
2022/05/22 00:39:04;;;;;;;5.10;3.27;;;12.80;1.00;;;;;;6179889;28;20430;-53
2022/05/22 00:42:16;;;;;;;3.33;2.87;;;12.80;1.00;;;;;;6184001;28;20239;-52
2022/05/22 00:45:19;;;;;;;4.93;2.60;;;12.80;1.00;;;;;;6159420;28;20418;-52
2022/05/22 00:48:23;;;;;;;4.23;2.93;;;12.80;1.00;;;;;;6159181;28;20746;-51
2022/05/22 00:51:32;;;;;;;3.03;2.73;;;12.80;1.00;;;;;;6157026;28;20247;-53
2022/05/22 00:54:40;;;;;;;3.20;3.00;;;12.80;1.00;;;;;;6159029;28;20291;-51
2022/05/22 00:57:47;;;;;;;4.13;2.63;;;12.80;1.00;;;;;;6159201;28;20324;-51
2022/05/22 01:00:49;;;;;;;4.67;2.80;;;12.70;1.00;;;;;;6158336;28;20363;-51
2022/05/22 01:03:55;;;;;;;2.70;2.53;;;12.70;1.00;;;;;;6183795;28;20224;-53
2022/05/22 01:06:59;;;;;;;3.20;2.80;;;12.60;1.00;;;;;;6202283;28;20239;-53
2022/05/22 01:10:03;;;;;;;3.13;2.93;;;12.60;1.00;;;;;;6186153;28;20727;-52
2022/05/22 01:13:07;;;;;;;5.80;3.13;;;12.60;1.00;;;;;;6187986;28;20327;-52
2022/05/22 01:16:10;;;;;;;2.40;2.40;;;12.50;1.00;;;;;;6187160;28;20228;-51
2022/05/22 01:19:15;;;;;;;5.00;3.07;;;12.50;1.00;;;;;;6177410;28;20331;-51
2022/05/22 01:22:19;;;;;;;3.90;2.93;;;12.50;1.00;;;;;;6160738;28;20616;-51
2022/05/22 01:25:22;;;;;;;6.07;3.17;;;12.40;1.00;;;;;;6163641;28;20708;-53
2022/05/22 01:28:24;;;;;;;5.47;3.40;;;12.30;1.00;;;;;;6163248;28;20372;-51
2022/05/22 01:31:27;;;;;;;3.00;2.80;;;12.30;1.00;;;;;;6163223;28;20290;-51
2022/05/22 01:34:30;;;;;;;3.33;3.00;;;12.20;1.00;;;;;;6190771;28;20239;-51
2022/05/22 01:37:34;;;;;;;4.47;3.10;;;12.20;1.00;;;;;;6191228;28;20817;-51
2022/05/22 01:40:38;;;;;;;4.07;2.90;;;12.10;1.00;;;;;;6187455;28;20260;-52
2022/05/22 01:43:40;;;;;;;3.80;2.90;;;12.10;1.00;;;;;;6186562;28;20290;-51
2022/05/22 01:46:43;;;;;;;3.03;2.83;;;12.10;1.00;;;;;;6162292;28;20357;-53
2022/05/22 01:49:46;;;;;;;6.67;3.17;;;12.10;1.00;;;;;;6163489;28;20525;-52
2022/05/22 01:52:50;;;;;;;5.57;3.20;;;12.10;1.00;;;;;;6156414;28;20319;-51
2022/05/22 01:55:53;;;;;;;6.80;3.13;;;12.10;1.00;;;;;;6163185;28;20705;-54
2022/05/22 01:58:55;;;;;;;6.93;3.63;;;12.10;1.00;;;;;;6162719;28;20313;-51
2022/05/22 02:01:58;;;;;;;5.50;3.40;;;12.10;1.00;;;;;;6161520;28;20379;-51
2022/05/22 02:05:02;;;;;;;7.37;3.27;;;12.10;1.00;;;;;;6198512;28;20513;-53
2022/05/22 02:08:26;;;;;;;5.47;3.40;;;12.10;1.00;;;;;;6188409;28;20971;-51
2022/05/22 02:11:29;;;;;;;5.47;3.70;;;12.10;1.00;;;;;;6179829;28;20237;-51
2022/05/22 02:14:32;;;;;;;4.93;3.10;;;12.10;1.00;;;;;;6183736;28;20239;-51
2022/05/22 02:17:34;;;;;;;5.90;3.37;;;12.10;1.00;;;;;;6185079;28;20267;-55
2022/05/22 02:20:38;;;;;;;4.70;2.87;;;12.10;1.00;;;;;;6184668;28;20648;-53
2022/05/22 02:23:42;;;;;;;4.13;3.30;;;12.10;1.00;;;;;;6185423;28;20331;-51
2022/05/22 02:26:44;;;;;;;4.93;3.20;;;12.10;1.00;;;;;;6185739;28;20236;-51
2022/05/22 02:29:48;;;;;;;3.43;3.13;;;12.10;1.00;;;;;;6186268;28;20347;-51
2022/05/22 02:32:50;;;;;;;3.47;3.03;;;12.10;1.00;;;;;;6172487;28;20349;-53
2022/05/22 02:35:53;;;;;;;3.40;3.10;;;12.20;1.00;;;;;;6200370;28;20326;-51
2022/05/22 02:38:57;;;;;;;3.90;3.10;;;12.10;1.00;;;;;;6189123;28;20247;-53
2022/05/22 02:42:02;;;;;;;7.07;3.37;;;12.20;1.00;;;;;;6164991;28;20714;-51
2022/05/22 02:45:06;;;;;;;4.27;3.30;;;12.10;1.00;;;;;;6161344;28;20712;-52
2022/05/22 02:48:10;;;;;;;4.77;3.20;;;12.20;1.00;;;;;;6161174;28;20335;-51
2022/05/22 02:51:15;;;;;;;5.23;3.47;;;12.20;1.00;;;;;;6160187;28;20324;-51
2022/05/22 02:54:21;;;;;;;7.77;3.37;;;12.20;1.00;;;;;;6162917;28;20324;-51
2022/05/22 02:57:25;;;;;;;12.93;4.20;;;12.10;1.00;;;;;;6161517;28;20651;-53
2022/05/22 03:00:30;;;;;;;6.40;3.30;;;12.00;1.00;;;;;;6161440;28;20825;-52
2022/05/22 03:03:34;;;;;;;3.90;3.53;;;12.00;1.00;;;;;;6174130;28;20279;-53
2022/05/22 03:06:40;;;;;;;6.93;3.43;;;12.00;1.00;;;;;;6189818;28;20243;-53
2022/05/22 03:09:46;;;;;;;7.70;3.20;;;11.90;1.00;;;;;;6185092;28;20802;-51
2022/05/22 03:12:49;;;;;;;6.77;3.50;;;11.90;1.00;;;;;;6169873;28;20252;-50
2022/05/22 03:15:51;;;;;;;3.93;3.10;;;11.90;1.00;;;;;;6162093;28;20250;-52
2022/05/22 03:18:54;;;;;;;7.77;3.73;;;11.80;1.00;;;;;;6161390;28;20750;-52
2022/05/22 03:21:57;;;;;;;8.80;3.70;;;11.80;1.00;;;;;;6159746;28;20561;-52
2022/05/22 03:25:01;;;;;;;7.03;4.10;;;11.80;1.00;;;;;;6161324;28;20243;-51
2022/05/22 03:28:04;;;;;;;7.77;3.77;;;11.80;1.00;;;;;;6133543;28;20403;-51
2022/05/22 03:31:07;;;;;;;6.93;3.97;;;11.80;1.00;;;;;;6159754;28;20286;-51
2022/05/22 03:34:10;;;;;;;7.03;3.70;;;11.70;1.00;;;;;;6187419;28;20246;-52
2022/05/22 03:37:14;;;;;;;4.03;3.63;;;11.80;1.00;;;;;;6194196;28;20239;-53
2022/05/22 03:40:18;;;;;;;5.27;3.63;;;11.80;1.00;;;;;;6188739;28;20457;-51
2022/05/22 03:43:21;;;;;;;6.77;3.97;;;11.80;1.00;;;;;;6177943;28;20319;-52
2022/05/22 03:46:24;;;;;;;6.47;3.73;;;11.80;1.00;;;;;;6194499;28;20232;-51
2022/05/22 03:49:26;;;;;;;3.80;3.50;;;11.80;1.00;;;;;;6184527;28;20236;-51
2022/05/22 03:52:29;;;;;;;4.60;3.87;;;11.90;8.60;;;;;;6182193;28;20239;-53
2022/05/22 03:55:33;;;;;;;7.23;4.00;;;12.00;2.20;;;;;;6192175;28;20271;-51
2022/05/22 03:58:36;;;;;;;5.43;3.83;;;11.90;4.00;;;;;;6180095;28;20262;-53
2022/05/22 04:01:39;;;;;;;5.90;3.67;;;12.00;4.70;;;;;;6186105;28;20232;-51
2022/05/22 04:04:41;;;;;;;8.67;3.77;;;12.10;4.50;;;;;;6182140;28;20315;-51
2022/05/22 04:07:48;;;;;;;6.00;3.90;;;12.20;2.90;;;;;;6174309;28;20231;-53
2022/05/22 04:10:52;;;;;;;5.63;3.50;;;12.10;1.50;;;;;;6185198;28;20228;-56
2022/05/22 04:13:55;;;;;;;5.87;3.37;;;12.10;2.70;;;;;;6180034;28;20458;-51
2022/05/22 04:16:57;;;;;;;5.53;3.17;;;12.20;1.00;;;;;;6183234;28;20236;-53
2022/05/22 04:20:00;;;;;;;5.43;3.80;;;12.10;1.00;;;;;;6183481;28;20573;-53
2022/05/22 04:26:30;;;;;;;9.20;3.83;;;12.20;1.00;;;;;;6191200;28;20864;-52
2022/05/22 04:29:34;;;;;;;6.70;4.30;;;12.20;1.00;;;;;;6187022;28;20286;-52
2022/05/22 04:32:37;;;;;;;7.70;3.83;;;12.20;1.00;;;;;;6177756;28;20390;-53
2022/05/22 04:35:40;;;;;;;7.87;3.90;;;12.20;1.00;;;;;;6186567;28;20322;-53
2022/05/22 04:38:43;;;;;;;6.30;3.90;;;12.30;1.00;;;;;;6176097;28;20307;-51
2022/05/22 04:41:47;;;;;;;4.07;3.67;;;12.30;1.00;;;;;;6189587;28;20236;-55
2022/05/22 04:44:49;;;;;;;7.20;3.73;;;12.40;1.00;;;;;;6190643;28;20319;-51
2022/05/22 04:47:52;;;;;;;8.27;3.90;;;12.50;1.00;;;;;;6191735;28;20487;-52
2022/05/22 04:50:56;;;;;;;7.80;3.93;;;12.70;1.00;;;;;;6188571;28;20258;-52
2022/05/22 04:53:58;;;;;;;7.63;4.03;;;13.00;1.00;;;;;;6185648;28;20231;-51
2022/05/22 04:57:03;;;;;;;4.33;3.57;;;13.00;1.00;;;;;;6184297;28;20399;-51
2022/05/22 05:00:09;;;;;;;9.50;3.80;;;13.20;1.00;;;;;;6190956;28;20242;-51
2022/05/22 05:03:12;;;;;;;6.90;3.67;;;13.20;1.00;;;;;;6195957;28;20711;-51
2022/05/22 05:06:14;;;;;;;8.13;3.00;;;13.30;1.00;;;;;;6190672;28;20323;-51
2022/05/22 05:09:17;;;;;;;5.83;3.67;;;13.40;1.00;;;;;;6190345;28;20285;-51
2022/05/22 05:12:21;;;;;;;6.87;3.80;;;13.50;1.00;;;;;;6183886;28;20283;-51
2022/05/22 05:15:24;;;;;;;5.13;3.63;;;13.40;1.00;;;;;;6188733;28;20846;-52
2022/05/22 05:18:27;;;;;;;9.70;3.47;;;13.50;1.00;;;;;;6195105;28;20254;-50
2022/05/22 05:21:30;;;;;;;6.47;3.90;;;13.40;1.00;;;;;;6182521;28;20236;-57
2022/05/22 05:24:33;;;;;;;7.73;3.93;;;13.60;1.00;;;;;;6187962;28;20259;-51
2022/05/22 05:27:37;;;;;;;4.17;3.47;;;13.90;1.00;;;;;;6190850;28;20259;-52
2022/05/22 05:30:49;;;;;;;11.03;4.57;;;14.10;1.00;;;;;;6182841;28;20512;-51
2022/05/22 05:33:52;;;;;;;12.87;4.30;;;14.10;1.00;;;;;;6187727;28;20239;-52
2022/05/22 05:36:54;;;;;;;5.57;3.87;;;14.20;1.00;;;;;;6183870;28;20258;-52
2022/05/22 05:39:57;;;;;;;6.97;3.93;;;14.10;1.00;;;;;;6188807;28;20232;-51
2022/05/22 05:43:01;;;;;;;8.30;4.33;;;14.10;1.00;;;;;;6188395;28;20343;-51
2022/05/22 05:46:04;;;;;;;9.23;4.17;;;14.20;1.00;;;;;;6189997;28;20239;-52
2022/05/22 05:49:16;;;;;;;11.80;4.17;;;14.10;1.00;;;;;;6186660;28;20567;-53
2022/05/22 05:52:18;;;;;;;6.20;3.90;;;14.20;1.00;;;;;;6187885;28;20315;-54
2022/05/22 05:55:42;;;;;;;6.37;3.60;;;14.30;1.00;;;;;;6191446;28;20424;-53
2022/05/22 05:59:06;;;;;;;5.07;3.37;;;14.50;1.00;;;;;;6191193;28;20308;-53
2022/05/22 06:02:11;;;;;;;8.60;4.23;;;14.70;1.00;;;;;;6188796;28;20232;-53
2022/05/22 06:05:15;;;;;;;6.90;3.60;;;14.80;1.00;;;;;;6185673;28;20645;-53
2022/05/22 06:08:17;;;;;;;9.07;3.60;;;14.90;1.00;;;;;;6184791;28;20247;-53
2022/05/22 06:11:20;;;;;;;7.07;3.77;;;14.90;1.00;;;;;;6187685;28;20239;-52
2022/05/22 06:14:30;;;;;;;6.90;3.37;;;14.90;1.00;;;;;;6178141;28;20237;-51
2022/05/22 06:17:35;;;;;;;6.70;3.50;;;14.90;1.00;;;;;;6187856;28;20231;-52
2022/05/22 06:20:38;;;;;;;6.57;3.50;;;14.90;1.00;;;;;;6178625;28;20309;-52
2022/05/22 06:23:41;;;;;;;4.43;3.63;;;14.90;1.00;;;;;;6185632;28;20574;-51
2022/05/22 06:26:44;;;;;;;7.67;3.67;;;15.10;1.00;;;;;;6195086;28;20322;-53
2022/05/22 06:29:48;;;;;;;10.03;3.67;;;15.00;1.00;;;;;;6190686;28;20250;-51
2022/05/22 06:32:51;;;;;;;10.63;4.03;;;15.10;1.00;;;;;;6193511;28;20243;-51
2022/05/22 06:35:54;;;;;;;13.47;4.10;;;15.20;1.00;;;;;;6186014;28;20245;-52
2022/05/22 06:42:23;;;;;;;3.37;2.97;;;15.70;1.00;;;;;;6159148;28;20303;-50
2022/05/22 06:45:27;;;;;;;6.20;3.23;;;16.00;1.00;;;;;;6180432;28;20406;-52
2022/05/22 06:48:30;;;;;;;5.97;3.00;;;16.20;1.00;;;;;;6178802;28;20240;-53
2022/05/22 06:51:32;;;;;;;6.03;2.93;;;16.10;1.00;;;;;;6186011;28;20254;-51
2022/05/22 06:54:35;;;;;;;6.53;3.67;;;16.00;1.00;;;;;;6188793;28;20285;-51
2022/05/22 06:57:38;;;;;;;8.23;3.50;;;15.70;1.00;;;;;;6189112;28;20255;-52
2022/05/22 07:00:42;;;;;;;5.20;2.93;;;15.90;1.00;;;;;;6181149;28;20723;-52
2022/05/22 07:03:45;;;;;;;4.43;3.23;;;15.90;1.00;;;;;;6188342;28;20236;-52
2022/05/22 07:06:49;;;;;;;5.03;3.47;;;16.00;1.00;;;;;;6181936;28;20331;-52
2022/05/22 07:09:51;;;;;;;7.47;3.30;;;16.30;1.00;;;;;;6178730;28;20280;-54
2022/05/22 07:12:54;;;;;;;4.00;3.07;;;16.40;1.00;;;;;;6178690;28;20224;-52
2022/05/22 07:16:00;;;;;;;8.37;3.03;;;16.40;1.00;;;;;;6189225;28;20228;-52
2022/05/22 07:19:23;;;;;;;5.83;3.03;;;16.30;1.00;;;;;;6184437;28;20728;-52
2022/05/22 07:22:26;;;;;;;3.07;2.73;;;16.10;1.00;;;;;;6181428;28;20228;-52
2022/05/22 07:25:28;;;;;;;9.20;2.70;;;16.00;1.00;;;;;;6185247;28;20231;-51
2022/05/22 07:28:31;;;;;;;3.50;3.20;;;15.80;1.00;;;;;;6177323;28;20333;-53
2022/05/22 07:31:35;;;;;;;3.07;2.77;;;15.80;1.00;;;;;;6182665;28;20622;-53
2022/05/22 07:34:40;;;;;;;4.73;2.90;;;15.60;1.00;;;;;;6181066;28;20244;-52
2022/05/22 07:37:43;;;;;;;5.43;3.27;;;15.60;1.00;;;;;;6177031;28;20811;-51
2022/05/22 07:40:46;;;;;;;5.37;3.00;;;15.60;1.00;;;;;;6187369;28;20328;-53
2022/05/22 07:43:51;;;;;;;5.83;3.63;;;15.80;1.00;;;;;;6191844;28;20248;-53
2022/05/22 07:46:56;;;;;;;3.00;2.70;;;15.80;1.00;;;;;;6186675;28;20434;-53
2022/05/22 07:53:19;;;;;;;4.90;2.97;;;16.00;1.00;;;;;;6185496;28;21036;-56
2022/05/22 07:56:22;;;;;;;4.73;2.63;;;16.10;1.00;;;;;;6188922;28;20326;-52
2022/05/22 07:59:25;;;;;;;3.17;2.47;;;16.30;1.00;;;;;;6181284;28;20240;-52
2022/05/22 08:02:29;;;;;;;2.77;2.50;;;16.40;1.00;;;;;;6187953;28;20347;-52
2022/05/22 08:05:32;;;;;;;2.20;2.20;;;16.40;1.00;;;;;;6178176;28;20228;-53
2022/05/22 08:08:35;;;;;;;8.10;2.73;;;16.40;1.00;;;;;;6186250;28;20306;-53
2022/05/22 08:11:45;;;;;;;3.03;2.40;;;16.40;1.00;;;;;;6187624;28;20239;-52
2022/05/22 08:14:47;;;;;;;4.50;2.40;;;16.40;1.00;;;;;;6180464;28;20790;-51
2022/05/22 08:17:51;;;;;;;3.20;2.50;;;16.40;1.00;;;;;;6176183;28;20247;-53
2022/05/22 08:20:54;;;;;;;3.17;2.53;;;16.40;1.00;;;;;;6179140;28;20540;-52
2022/05/22 08:23:59;;;;;;;4.83;2.40;;;16.60;1.00;;;;;;6185135;28;20231;-52
2022/05/22 08:27:01;;;;;;;2.40;2.20;;;16.80;1.00;;;;;;6172162;28;20319;-50
2022/05/22 08:30:06;;;;;;;2.77;2.50;;;17.00;1.00;;;;;;6184208;28;20725;-50
2022/05/22 08:33:10;;;;;;;2.60;2.40;;;17.10;1.00;;;;;;6184524;28;20785;-52
2022/05/22 08:36:13;;;;;;;3.00;2.00;;;17.10;1.00;;;;;;6175423;28;20320;-50
2022/05/22 08:39:15;;;;;;;3.90;2.20;;;17.20;1.00;;;;;;6183201;28;20239;-51
2022/05/22 08:42:22;;;;;;;2.23;2.00;;;17.00;1.00;;;;;;6183307;28;20309;-53
2022/05/22 08:45:30;;;;;;;2.40;2.20;;;17.00;1.00;;;;;;6186779;28;20706;-53
2022/05/22 08:48:39;;;;;;;2.37;2.17;;;17.10;1.00;;;;;;6195132;28;20247;-52
2022/05/22 08:51:45;;;;;;;3.37;2.30;;;17.20;1.00;;;;;;6182486;28;20323;-53
2022/05/22 08:54:53;;;;;;;3.60;2.50;;;17.40;1.00;;;;;;6176697;28;20621;-51
2022/05/22 09:01:34;;;;;;;2.23;2.10;;;17.40;1.00;;;;;;6179542;28;20247;-55
2022/05/22 09:04:41;;;;;;;2.77;2.10;;;17.40;1.00;;;;;;6173571;28;20237;-53
2022/05/22 09:07:52;;;;;;;2.50;2.27;;;17.30;1.00;;;;;;6186365;28;20637;-53
2022/05/22 09:11:04;;;;;;;2.70;2.50;;;17.30;1.00;;;;;;6185320;28;20244;-53
2022/05/22 09:14:10;;;;;;;4.90;2.53;;;17.10;1.00;;;;;;6187005;28;20231;-53
2022/05/22 09:17:17;;;;;;;2.40;2.30;;;17.00;1.00;;;;;;6181374;28;20323;-52
2022/05/22 09:20:30;;;;;;;2.40;2.20;;;16.90;1.00;;;;;;6172771;28;20362;-51
2022/05/22 09:23:56;;;;;;;2.93;2.43;;;16.90;1.00;;;;;;6184837;28;20446;-51
2022/05/22 09:27:06;;;;;;;3.60;2.13;;;16.90;1.00;;;;;;6184552;28;20725;-53
2022/05/22 09:30:14;;;;;;;2.13;2.00;;;16.90;1.00;;;;;;6183135;28;20236;-52
2022/05/22 09:33:24;;;;;;;3.27;2.30;;;17.10;1.00;;;;;;6184513;28;20249;-50
2022/05/22 09:36:38;;;;;;;4.87;2.07;;;17.50;1.00;;;;;;6185312;28;20859;-53
2022/05/22 09:40:11;;;;;;;2.10;2.00;;;17.80;1.00;;;;;;6191241;28;20645;-52
2022/05/22 09:43:34;;;;;;;2.83;2.10;;;18.00;1.00;;;;;;6180443;28;20334;-53
2022/05/22 09:46:56;;;;;;;2.07;2.00;;;18.10;1.00;;;;;;6187400;28;20391;-52
2022/05/22 09:50:11;;;;;;;4.93;2.20;;;18.10;1.00;;;;;;6183357;28;20319;-52
2022/05/22 09:53:33;;;;;;;2.37;2.27;;;18.30;1.00;;;;;;6183282;28;20355;-52
2022/05/22 09:56:46;;;;;;;2.23;2.03;;;18.10;1.00;;;;;;6182308;28;20299;-51
2022/05/22 10:00:07;;;;;;;4.53;2.00;;;18.10;1.00;;;;;;6186745;28;20363;-51
2022/05/22 10:03:13;;;;;;;4.73;2.40;;;18.00;1.00;;;;;;6201040;28;20250;-52
2022/05/22 10:06:22;;;;;;;4.43;2.33;;;17.90;1.00;;;;;;6191106;28;20265;-51
2022/05/22 10:09:38;;;;;;;3.27;1.90;;;17.80;1.00;;;;;;6186307;28;20521;-53
2022/05/22 10:12:53;;;;;;;3.53;2.27;;;17.90;1.00;;;;;;6180834;28;20377;-51
2022/05/22 10:16:10;;;;;;;2.10;1.97;;;18.10;1.00;;;;;;6182454;28;20276;-53
2022/05/22 10:19:28;;;;;;;2.90;2.10;;;18.20;1.00;;;;;;6190986;28;20717;-53
2022/05/22 10:22:40;;;;;;;2.23;2.03;;;18.30;1.00;;;;;;6184373;28;20351;-53
2022/05/22 10:25:52;;;;;;;3.80;2.20;;;18.20;1.00;;;;;;6190261;28;20624;-53
2022/05/22 10:28:59;;;;;;;3.70;2.10;;;18.10;1.00;;;;;;6194375;28;20665;-53
2022/05/22 10:32:06;;;;;;;2.50;2.27;;;17.90;1.00;;;;;;6184311;28;20247;-52
2022/05/22 10:35:14;;;;;;;2.40;2.20;;;18.20;1.00;;;;;;6189584;28;20323;-53
2022/05/22 10:38:21;;;;;;;2.87;2.27;;;18.20;1.00;;;;;;6187119;28;20416;-52
2022/05/22 10:44:57;;;;;;;3.13;2.20;;;18.30;1.00;;;;;;6185685;28;20647;-53
2022/05/22 10:48:09;;;;;;;2.27;2.00;;;18.50;1.00;;;;;;6179849;28;20709;-52
2022/05/22 10:51:21;;;;;;;2.30;1.90;;;18.80;1.00;;;;;;6178085;28;20331;-51
2022/05/22 10:54:27;;;;;;;2.67;1.83;;;19.00;1.00;;;;;;6190973;28;20347;-52
2022/05/22 10:57:33;;;;;;;1.90;1.80;;;19.10;1.00;;;;;;6182238;28;20516;-53
2022/05/22 11:00:35;;;;;;;2.63;2.03;;;19.20;1.00;;;;;;6184864;28;20267;-52
2022/05/22 11:03:38;;;;;;;5.40;2.10;;;19.30;1.00;;;;;;6185747;28;21742;-51
2022/05/22 11:06:53;;;;;;;1.93;1.73;;;19.50;1.00;;;;;;6181726;28;20444;-53
2022/05/22 11:10:06;;;;;;;2.27;1.97;;;19.50;1.00;;;;;;6193408;28;20375;-51
2022/05/22 11:13:12;;;;;;;4.67;1.90;;;19.50;1.00;;;;;;6189130;28;20376;-51
2022/05/22 11:16:17;;;;;;;2.00;1.90;;;19.40;1.00;;;;;;6185478;28;20266;-52
2022/05/22 11:19:24;;;;;;;1.70;1.67;;;19.20;1.00;;;;;;6184330;28;20244;-52
2022/05/22 11:22:40;;;;;;;2.50;2.30;;;19.10;1.00;;;;;;6178361;28;20246;-52
2022/05/22 11:25:53;;;;;;;2.70;2.03;;;19.20;1.00;;;;;;6190372;28;20240;-52
2022/05/22 11:29:12;;;;;;;2.17;2.03;;;19.40;1.00;;;;;;6189638;28;20323;-56
2022/05/22 11:32:30;;;;;;;2.47;2.27;;;19.60;1.00;;;;;;6182293;28;20314;-52
2022/05/22 11:35:38;;;;;;;1.97;1.87;;;19.60;1.00;;;;;;6180745;28;20711;-53
2022/05/22 11:38:48;;;;;;;1.97;1.80;;;19.70;1.00;;;;;;6187089;28;20792;-52
2022/05/22 11:41:55;;;;;;;1.57;1.53;;;19.50;1.00;;;;;;6189661;28;20379;-51
2022/05/22 11:45:17;;;;;;;2.33;1.90;;;19.60;1.00;;;;;;6183267;28;20240;-52
2022/05/22 11:48:39;;;;;;;1.80;1.70;;;19.80;1.00;;;;;;6184186;28;20243;-50
2022/05/22 11:52:01;;;;;;;3.17;1.90;;;19.80;1.00;;;;;;6179187;28;20324;-51
2022/05/22 11:55:11;;;;;;;2.20;2.10;;;19.60;1.00;;;;;;6186567;28;20694;-51
2022/05/22 11:58:21;;;;;;;2.63;1.90;;;19.50;1.00;;;;;;6191328;28;20786;-52
2022/05/22 12:01:31;;;;;;;3.03;1.90;;;19.40;1.00;;;;;;6187305;28;20818;-52
2022/05/22 12:05:05;;;;;;;2.17;2.17;;;19.20;1.00;;;;;;6183071;28;20918;-52
2022/05/22 12:08:21;;;;;;;1.63;1.53;;;19.50;1.00;;;;;;6188402;28;20318;-53
2022/05/22 12:11:31;;;;;;;1.93;1.83;;;19.70;1.00;;;;;;6189073;28;20764;-55
2022/05/22 12:14:40;;;;;;;1.97;1.87;;;19.70;1.00;;;;;;6193839;28;20278;-52
2022/05/22 12:17:49;;;;;;;2.10;1.90;;;19.60;1.00;;;;;;6181042;28;20852;-51
2022/05/22 12:20:57;;;;;;;1.90;1.73;;;19.70;1.00;;;;;;6188336;28;20315;-52
2022/05/22 12:24:07;;;;;;;1.70;1.60;;;20.00;1.00;;;;;;6187955;28;20589;-51
2022/05/22 12:27:19;;;;;;;1.90;1.80;;;19.90;1.00;;;;;;6177956;28;20331;-52
2022/05/22 12:30:26;;;;;;;1.70;1.70;;;20.00;1.00;;;;;;6192324;28;20223;-54
2022/05/22 12:33:33;;;;;;;2.17;2.00;;;20.20;1.00;;;;;;6185266;28;20325;-52
2022/05/22 12:36:38;;;;;;;2.07;1.97;;;20.00;1.00;;;;;;6177399;28;20375;-52
2022/05/22 12:39:48;;;;;;;1.80;1.80;;;20.30;1.00;;;;;;6186033;28;20263;-52
2022/05/22 12:42:54;;;;;;;1.80;1.70;;;20.00;1.00;;;;;;6184487;28;20747;-52
2022/05/22 12:46:00;;;;;;;3.07;1.80;;;19.70;1.00;;;;;;6183318;28;20251;-52
2022/05/22 12:49:07;;;;;;;2.13;1.77;;;19.50;1.00;;;;;;6189132;28;20236;-51
2022/05/22 12:52:27;;;;;;;2.10;1.90;;;19.20;1.00;;;;;;6185660;28;20302;-53
2022/05/22 12:55:33;;;;;;;1.83;1.60;;;19.30;1.00;;;;;;6178172;28;20260;-52
2022/05/22 12:58:39;;;;;;;2.07;1.90;;;19.50;1.00;;;;;;6174787;28;20244;-52
2022/05/22 13:01:45;;;;;;;1.90;1.80;;;19.80;1.00;;;;;;6185023;28;20314;-49
2022/05/22 13:04:56;;;;;;;1.60;1.50;;;20.40;1.00;;;;;;6186425;28;20240;-52
2022/05/22 13:07:59;;;;;;;2.20;2.00;;;20.70;1.00;;;;;;6188347;28;20331;-52
2022/05/22 13:11:11;;;;;;;2.50;2.30;;;20.50;1.00;;;;;;6200336;28;20227;-52
2022/05/22 13:14:41;;;;;;;2.00;1.80;;;20.40;1.00;;;;;;6177178;28;20297;-52
2022/05/22 13:17:50;;;;;;;1.90;1.80;;;20.40;1.00;;;;;;6194858;28;20387;-52
2022/05/22 13:20:56;;;;;;;3.17;2.10;;;20.40;1.00;;;;;;6188882;28;20236;-51
2022/05/22 13:24:05;;;;;;;2.50;1.80;;;20.40;1.00;;;;;;6193336;28;20464;-52
2022/05/22 13:27:21;;;;;;;1.97;1.87;;;20.30;1.00;;;;;;6191509;28;20294;-50
2022/05/22 13:30:27;;;;;;;2.93;2.73;;;20.20;1.00;;;;;;6195285;28;20327;-52
2022/05/22 13:33:31;;;;;;;2.27;2.07;;;20.50;1.00;;;;;;6190511;28;20290;-53
2022/05/22 13:36:44;;;;;;;2.20;2.00;;;20.90;1.00;;;;;;6181123;28;20284;-51
2022/05/22 13:39:57;;;;;;;1.70;1.60;;;20.90;1.00;;;;;;6196930;28;20242;-52
2022/05/22 13:43:49;;;;;;;3.10;2.17;;;20.80;1.00;;;;;;6192572;28;20251;-52
2022/05/22 13:47:23;;;;;;;2.33;1.87;;;20.70;1.00;;;;;;6186273;28;20253;-51
2022/05/22 13:54:07;;;;;;;2.23;2.03;;;20.20;1.00;;;;;;6174180;28;20356;-51
2022/05/22 13:57:14;;;;;;;2.17;1.90;;;20.50;1.00;;;;;;6189118;28;20733;-54
2022/05/22 14:00:20;;;;;;;2.20;2.03;;;20.70;1.00;;;;;;6192925;28;20242;-51
2022/05/22 14:03:28;;;;;;;2.03;1.80;;;20.60;1.00;;;;;;6188731;28;20331;-52
2022/05/22 14:06:34;;;;;;;2.10;2.00;;;20.70;1.00;;;;;;6187598;28;20239;-51
2022/05/22 14:09:43;;;;;;;1.93;1.83;;;20.80;1.00;;;;;;6184791;28;20240;-52
2022/05/22 14:12:46;;;;;;;2.57;1.93;;;20.80;1.00;;;;;;6183368;28;20710;-51
2022/05/22 14:15:50;;;;;;;2.17;2.00;;;20.50;1.00;;;;;;6189084;28;20373;-51
2022/05/22 14:19:01;;;;;;;2.03;1.93;;;20.70;1.00;;;;;;6187530;28;20238;-52
2022/05/22 14:22:12;;;;;;;3.17;2.10;;;20.90;1.00;;;;;;6182663;28;20307;-51
2022/05/22 14:25:22;;;;;;;7.17;5.23;;;21.00;1.00;;;;;;6188298;28;20462;-51
2022/05/22 14:28:31;;;;;;;3.37;2.17;;;21.10;1.00;;;;;;6185254;28;20311;-53
2022/05/22 14:31:41;;;;;;;2.10;2.00;;;20.70;1.00;;;;;;6182621;28;20319;-51
2022/05/22 14:34:45;;;;;;;1.97;1.93;;;20.90;1.00;;;;;;6186281;28;20259;-53
2022/05/22 14:37:48;;;;;;;2.00;1.87;;;20.90;1.00;;;;;;6189962;28;20246;-50
2022/05/22 14:40:55;;;;;;;2.20;2.00;;;21.30;1.00;;;;;;6191554;28;20244;-51
2022/05/22 14:44:02;;;;;;;2.10;2.00;;;21.60;1.00;;;;;;6178472;28;20235;-52
2022/05/22 14:47:06;;;;;;;1.73;1.70;;;21.80;1.00;;;;;;6186221;28;20321;-55
2022/05/22 14:50:11;;;;;;;2.17;2.07;;;21.80;1.00;;;;;;6185011;28;20665;-53
2022/05/22 14:53:18;;;;;;;2.20;2.10;;;21.70;1.00;;;;;;6184970;28;20301;-52
2022/05/22 14:56:23;;;;;;;2.00;1.90;;;21.70;1.00;;;;;;6185700;28;20271;-52
2022/05/22 14:59:32;;;;;;;1.60;1.50;;;21.70;1.00;;;;;;6190712;28;20668;-53
2022/05/22 15:02:42;;;;;;;2.00;1.90;;;21.50;1.00;;;;;;6187789;28;20251;-51
2022/05/22 15:05:52;;;;;;;2.00;1.90;;;21.70;1.00;;;;;;6177087;28;20812;-51
2022/05/22 15:08:57;;;;;;;2.13;1.93;;;21.90;1.00;;;;;;6184572;28;20266;-54
2022/05/22 15:12:16;;;;;;;2.00;1.90;;;21.90;1.00;;;;;;6179401;28;20246;-52
2022/05/22 15:15:26;;;;;;;2.40;1.80;;;22.30;1.00;;;;;;6175716;28;20232;-52
2022/05/22 15:21:46;;;;;;;2.03;1.80;;;22.20;1.00;;;;;;6182438;28;20448;-53
2022/05/22 15:28:23;;;;;;;2.00;1.90;;;22.20;1.00;;;;;;6185074;28;20260;-51
2022/05/22 15:31:29;;;;;;;1.90;1.80;;;22.20;1.00;;;;;;6191080;28;20708;-53
2022/05/22 15:34:31;;;;;;;1.90;1.80;;;22.00;1.00;;;;;;6179158;28;20252;-51
2022/05/22 15:37:46;;;;;;;1.90;1.70;;;21.50;1.00;;;;;;6175104;28;20251;-53
2022/05/22 15:40:49;;;;;;;2.60;1.70;;;21.20;1.00;;;;;;6179377;28;20322;-52
2022/05/22 15:44:15;;;;;;;3.23;1.80;;;21.10;1.00;;;;;;6168329;28;20414;-52
2022/05/22 15:47:21;;;;;;;2.07;1.97;;;21.10;1.00;;;;;;6159667;28;20236;-51
2022/05/22 15:53:44;;;;;;;2.30;2.20;;;21.20;1.00;;;;;;6164483;28;20331;-54
2022/05/22 15:56:48;;;;;;;2.10;1.90;;;21.20;1.00;;;;;;6184151;28;20732;-54
2022/05/22 15:59:52;;;;;;;3.23;1.87;;;21.00;1.00;;;;;;6178184;28;20371;-51
2022/05/22 16:02:57;;;;;;;2.00;1.90;;;21.20;1.00;;;;;;6186919;28;20273;-53
2022/05/22 16:06:00;;;;;;;1.83;1.70;;;21.40;1.00;;;;;;6187356;28;20704;-50
2022/05/22 16:09:03;;;;;;;1.93;1.80;;;21.40;1.00;;;;;;6181405;28;20238;-51
2022/05/22 16:12:08;;;;;;;2.40;1.63;;;21.50;1.00;;;;;;6185274;28;20236;-51
2022/05/22 16:15:14;;;;;;;2.30;1.87;;;21.40;1.00;;;;;;6183897;28;20284;-53
2022/05/22 16:18:19;;;;;;;1.87;1.77;;;21.10;1.00;;;;;;6173818;28;20244;-51
2022/05/22 16:21:24;;;;;;;4.37;1.83;;;21.00;1.00;;;;;;6159564;28;20359;-51
2022/05/22 16:24:27;;;;;;;1.90;1.80;;;20.80;1.00;;;;;;6160553;28;20322;-53
2022/05/22 16:27:30;;;;;;;1.47;1.47;;;20.60;1.00;;;;;;6179490;28;20662;-54
2022/05/22 16:30:35;;;;;;;2.23;2.03;;;20.50;1.00;;;;;;6184582;28;20721;-53
2022/05/22 16:33:38;;;;;;;2.43;1.67;;;20.50;1.00;;;;;;6190134;28;20250;-51
2022/05/22 16:36:40;;;;;;;2.40;1.60;;;20.50;1.00;;;;;;6186743;28;20315;-53
2022/05/22 16:39:43;;;;;;;1.80;1.70;;;20.50;1.00;;;;;;6204103;28;20286;-51
2022/05/22 16:42:47;;;;;;;2.03;1.83;;;20.30;1.00;;;;;;6191433;28;20244;-53
2022/05/22 16:45:51;;;;;;;2.20;2.10;;;20.30;1.00;;;;;;6179513;28;20232;-51
2022/05/22 16:55:38;;;;;;;2.50;2.30;;;20.10;1.00;;;;;;6165113;28;20247;-51
2022/05/22 16:58:47;;;;;;;1.83;1.73;;;20.10;1.00;;;;;;6164112;28;20236;-52
2022/05/22 17:01:53;;;;;;;2.50;2.30;;;20.20;1.00;;;;;;6185194;28;20432;-52
2022/05/22 17:04:56;;;;;;;3.13;2.17;;;20.10;1.00;;;;;;6194066;28;20239;-53